Tiempo atmosférico en la estación meteorológica de Roncesvalles, Navarra (940 m.)



Fecha
DESCASC
Temp. máxima en grados centígrados (hora)
DESCASC
Temp. mínima en grados centígrados (hora)
DESCASC
Temp. media en grados centígrados
DESCASC
Racha de viento máxima en m/sg (hora)
DESCASC
Velocidad máxima media en intervalos de 10 minutos(hora)
DESCASC
Precipitaciones diarias en mm
DESCASC
Precipitaciones de 00:00 a 06:00 en mm
DESCASC
Precipitaciones de 06:00 a 12:00 en mm
DESCASC
Precipitaciones de 12:00 a 18:00 en mm
DESCASC
Precipitaciones de 18:00 a 24:00 en mm
DESCASC
28-02-2021 9 (11:30) -0.1 (03:30) 4.4 10.56 (23:59) 5.56 (01:30) 2.8 0 0 2.6 0.2
27-02-2021 6.3 (16:20) 3.1 (22:50) 4.7 13.61 (23:10) 7.22 (23:20) 0 0 0 0 0
26-02-2021 8.8 (16:00) 4.2 (07:20) 6.5 9.17 (17:00) 5.28 (23:59) 0 0 0 0 0
25-02-2021 14.8 (15:40) 4.9 (00:00) 9.9 6.39 (15:50) 3.61 (12:30) 0 0 0 0 0
24-02-2021 14.7 (15:00) 8.2 (00:00) 11.4 13.61 (15:30) 7.78 (14:00) 0 0 0 0 0
23-02-2021 11.2 (15:50) 1.7 (00:00) 6.4 16.67 (16:30) 8.61 (14:00) 0 0 0 0 0
22-02-2021 9.4 (01:00) 0.1 (00:00) 4.7 10.28 (04:30) 5 (04:30) 44 20.6 20 3.2 0.2
21-02-2021 14.4 (12:40) 9.1 (00:00) 11.8 13.06 (14:20) 7.5 (13:50) 0.2 0 0 0 0.2
20-02-2021 16.4 (15:50) 11.1 (00:00) 13.8 18.06 (02:50) 10.28 (03:10) 0 0 0 0 0
19-02-2021 13.9 (15:30) 6.9 (00:00) 10.4 14.44 (15:00) 8.06 (14:40) 0 0 0 0 0
18-02-2021 13.3 (16:00) 7.4 (00:00) 10.4 12.78 (09:20) 7.22 (09:50) 0 0 0 0 0
17-02-2021 13.1 (14:30) 3.8 (00:00) 8.5 11.11 (13:40) 6.11 (13:00) 0 0 0 0 0
16-02-2021 10.6 (14:40) 4.9 (00:00) 7.8 11.67 (09:20) 5.83 (09:20) 0 0 0 0 0
15-02-2021 11.8 (15:00) 3.1 (00:00) 7.5 8.89 (11:40) 5.28 (12:20) 0 0 0 0 0
14-02-2021 11.2 (14:30) -0.6 (-00:0) 5.3 11.39 (15:10) 6.67 (15:30) 0 0 0 0 0
13-02-2021 8.7 (12:50) 2.2 (00:00) 5.4 7.22 (13:10) 3.61 (08:10) 4.4 4.4 0 0 0
12-02-2021 9.4 (06:10) 5.8 (00:00) 7.6 11.11 (05:40) 5.83 (05:40) 32.4 0 8.2 15 9.2
11-02-2021 10.5 (16:00) -0.6 (-00:0) 4.9 3.33 (14:20) 1.94 (14:10) 0 0 0 0 0
10-02-2021 4.3 (15:40) 0 (00:00) 2.2 7.5 (02:00) 2.78 (01:00) 7.8 0 4.6 3.2 0
09-02-2021 6 (13:00) 1.6 (00:00) 3.8 13.61 (16:00) 6.94 (13:20) 3.2 0.2 0 2.8 0.2
08-02-2021 6.7 (16:10) 1.1 (00:00) 3.9 5 (17:40) 2.78 (17:40) 16.4 1.6 5.6 9 0.2
07-02-2021 4.1 (14:50) 0 (00:00) 2 6.39 (00:20) 1.67 (00:10) 9.6 3 3.4 0.6 2.6
06-02-2021 6.4 (06:10) 0.6 (00:00) 3.5 9.44 (21:30) 2.78 (21:30) 23.2 0 5 12.8 5.4
05-02-2021 14.1 (14:30) 4.3 (00:00) 9.2 6.11 (00:30) 2.22 (14:40) 0 0 0 0 0
04-02-2021 13.6 (15:10) 7.6 (00:00) 10.6 9.72 (23:40) 5 (09:10) 0.2 0 0.2 0 0
03-02-2021 9.1 (16:30) 7.1 (00:00) 8.1 13.06 (03:10) 7.22 (03:20) 1.4 0.2 0 0.6 0.6
02-02-2021 12.3 (16:10) 6 (03:50) 9.2 8.61 (14:10) 4.72 (14:30) 0 0 0 0 0
01-02-2021 7.9 (16:10) 5.7 (00:00) 6.8 15.83 (04:20) 3.61 (09:40) 44 17.8 5.2 18.6 2.4
31-01-2021 8.6 (16:50) 3.3 (00:00) 6 10.83 (23:30) 3.33 (23:30) 32.6 16 7.2 6.4 3

Gráficas

Temp. máximas Temp. mínimas Temp. medias Precipitaciones Rachas de viento máximas Velocidades máximas media en intervalos de 10 minutos

Datos horarios

Fecha y hora oficial Temperatura (ºC) Velocidad del viento (km/h) Dirección del viento Racha (km/h) Dirección de racha Precipitación (mm) Presión (hPa) Tendencia (hPa) Humedad (%)
2021-03-01 23:00:00 6.4 6 Sudoeste 27 Sur 0 -- -- 80
2021-03-01 22:00:00 6.3 6 Sudoeste 26 Sudeste 0 -- -- 81
2021-03-01 21:00:00 6.7 8 Sur 22 Sudoeste 0 -- -- 79
2021-03-01 20:00:00 6.6 6 Sur 17 Sur 0 -- -- 80
2021-03-01 19:00:00 7.2 14 Sur 29 Sur 0 -- -- 79
2021-03-01 18:00:00 7.9 12 Sudoeste 29 Sudoeste 0 -- -- 78
2021-03-01 17:00:00 10.1 10 Sudoeste 24 Sur 0 -- -- 66
2021-03-01 16:00:00 10.6 13 Sur 30 Sur 0 -- -- 64
2021-03-01 15:00:00 10.4 14 Sur 31 Sur 0 -- -- 65
2021-03-01 14:00:00 10.2 18 Sudoeste 35 Sur 0 -- -- 69
2021-03-01 13:00:00 9.9 15 Sudoeste 35 Sur 0 -- -- 65
2021-03-01 12:00:00 9.4 15 Sudoeste 34 Sudoeste 0 -- -- 63
2021-03-01 11:00:00 7.7 18 Sur 34 Sur 0 -- -- 70
2021-03-01 10:00:00 5.9 9 Sur 26 Sur 0 -- -- 82
2021-03-01 09:00:00 4.7 13 Sur 26 Sudoeste 0 -- -- 85
2021-03-01 08:00:00 4.5 5 Sur 22 Sudoeste 0 -- -- 88
2021-03-01 07:00:00 4.1 10 Sur 23 Sur 0 -- -- 90
2021-03-01 06:00:00 4.4 9 Sudoeste 28 Sur 0 -- -- 87
2021-03-01 05:00:00 5.4 10 Sur 27 Sur 0 -- -- 81
2021-03-01 04:00:00 5.8 14 Sur 37 Sur 0 -- -- 80
2021-03-01 03:00:00 6.1 13 Sur 27 Sur 0 -- -- 79
2021-03-01 02:00:00 6.1 18 Sur 36 Sur 0 -- -- 81
2021-03-01 01:00:00 6 14 Sur 34 Sudeste 0 -- -- 83
2021-03-01 00:00:00 5.9 12 Sudeste 38 Sudeste 0 -- -- 83
2021-02-28 23:00:00 5.8 9 Sur 26 Sur 0 -- -- 85
2021-02-28 22:00:00 6 10 Sudeste 30 Sudeste 0 -- -- 84
2021-02-28 21:00:00 5.8 10 Sur 28 Sur 0 -- -- 86
2021-02-28 20:00:00 5.7 8 Sur 37 Sudeste 0 -- -- 86
2021-02-28 19:00:00 5.6 13 Sudeste 31 Sudeste 0.2 -- -- 87
2021-02-28 18:00:00 5.5 7 Sudeste 23 Sudeste 0.2 -- -- 92
2021-02-28 17:00:00 5.9 8 Sudeste 30 Sudeste 0.6 -- -- 90
2021-02-28 16:00:00 5.6 9 Sudeste 24 Este 0.4 -- -- 94
2021-02-28 15:00:00 5.1 7 Sudeste 18 Este 0.6 -- -- 93
2021-02-28 14:00:00 5.2 5 Sudeste 11 Sudeste 0.4 -- -- 94
2021-02-28 13:00:00 4.9 6 Este 28 Sudeste 0.4 -- -- 92
2021-02-28 12:00:00 7.7 6 Sur 21 Sudeste 0 -- -- 77
2021-02-28 11:00:00 8 3 Este 6 Sudeste 0 -- -- 75
2021-02-28 10:00:00 3.9 0 Calma 2 Sur 0 -- -- 89
2021-02-28 09:00:00 3.2 0 Calma 2 Norte 0 -- -- 97
2021-02-28 08:00:00 2 0 Calma 4 Oeste 0 -- -- 100
2021-02-28 07:00:00 1.7 0 Calma 12 Oeste 0 -- -- 100
2021-02-28 06:00:00 1.6 3 Norte 16 Nordeste 0 -- -- 96
2021-02-28 05:00:00 0.5 3 Nordeste 6 Sur 0 -- -- 100
2021-02-28 04:00:00 0.3 0 Calma 8 Nordeste 0 -- -- 100
2021-02-28 03:00:00 0.8 0 Calma 12 Sudoeste 0 -- -- 98
2021-02-28 02:00:00 2.2 5 Norte 37 Nordeste 0 -- -- 97
2021-02-28 01:00:00 2.8 6 Este 30 Norte 0 -- -- 99
2021-02-28 00:00:00 3.2 19 Norte 49 Norte 0 -- -- 96
2021-02-27 23:00:00 3.3 17 Noroeste 40 Norte 0 -- -- 96
2021-02-27 22:00:00 3.2 10 Noroeste 28 Noroeste 0 -- -- 97
2021-02-27 21:00:00 3.5 7 Noroeste 27 Norte 0 -- -- 94
2021-02-27 20:00:00 3.6 9 Noroeste 27 Noroeste 0 -- -- 94
2021-02-27 19:00:00 4.1 8 Oeste 23 Norte 0 -- -- 95
2021-02-27 18:00:00 5.2 8 Sur 27 Norte 0 -- -- 89
2021-02-27 17:00:00 5.8 10 Oeste 37 Norte 0 -- -- 84
2021-02-27 16:00:00 6 19 Norte 44 Noroeste 0 -- -- 83
2021-02-27 15:00:00 6 17 Noroeste 48 Norte 0 -- -- 86
2021-02-27 14:00:00 5.1 14 Sudoeste 30 Oeste 0 -- -- 92
2021-02-27 13:00:00 3.8 8 Sudoeste 27 Noroeste 0 -- -- 100
2021-02-27 12:00:00 3.9 9 Sur 25 Noroeste 0 -- -- 100
2021-02-27 11:00:00 4.3 7 Sudeste 26 Sudeste 0 -- -- 100
2021-02-27 10:00:00 4.1 11 Este 35 Nordeste 0 -- -- 100
2021-02-27 09:00:00 4.4 9 Este 37 Este 0 -- -- 100
2021-02-27 08:00:00 4.3 12 Este 37 Nordeste 0 -- -- 100
2021-02-27 07:00:00 4.5 11 Este 42 Este 0 -- -- 100
2021-02-27 06:00:00 4.5 10 Este 33 Nordeste 0 -- -- 100
2021-02-27 05:00:00 4.6 9 Este 33 Este 0 -- -- 100
2021-02-27 04:00:00 4.6 13 Nordeste 36 Este 0 -- -- 100
2021-02-27 03:00:00 5 12 Este 35 Nordeste 0 -- -- 100
2021-02-27 02:00:00 5.2 15 Este 35 Nordeste 0 -- -- 100
2021-02-27 01:00:00 5.4 15 Nordeste 31 Nordeste 0 -- -- 100
2021-02-27 00:00:00 5.4 19 Nordeste 32 Nordeste 0 -- -- 100
2021-02-26 23:00:00 5.7 12 Nordeste 28 Norte 0 -- -- 100
2021-02-26 22:00:00 5.8 15 Norte 32 Noroeste 0 -- -- 100
2021-02-26 21:00:00 6 11 Norte 30 Norte 0 -- -- 100
2021-02-26 20:00:00 6.2 14 Norte 30 Nordeste 0 -- -- 100
2021-02-26 19:00:00 6.5 16 Norte 32 Norte 0 -- -- 100
2021-02-26 18:00:00 7.2 16 Norte 32 Norte 0 -- -- 97
2021-02-26 17:00:00 8.1 17 Norte 33 Nordeste 0 -- -- 92
2021-02-26 16:00:00 8.8 17 Norte 31 Norte 0 -- -- 88
2021-02-26 15:00:00 8.4 17 Norte 30 Norte 0 -- -- 90
2021-02-26 14:00:00 8.1 17 Norte 30 Norte 0 -- -- 92
2021-02-26 13:00:00 7.9 16 Norte 28 Nordeste 0 -- -- 92
2021-02-26 12:00:00 7.5 15 Nordeste 25 Norte 0 -- -- 94
2021-02-26 11:00:00 6.2 12 Nordeste 24 Nordeste 0 -- -- 99
2021-02-26 10:00:00 6 3 Norte 18 Nordeste 0 -- -- 98
2021-02-26 09:00:00 5.5 3 Sudoeste 10 Este 0 -- -- 100
2021-02-26 08:00:00 4.7 2 Noroeste 6 Norte 0 -- -- 100
2021-02-26 07:00:00 4.5 0 Calma 7 Norte 0 -- -- 100
2021-02-26 06:00:00 4.8 0 Calma 12 Nordeste 0 -- -- 99
2021-02-26 05:00:00 5.3 0 Calma 14 Norte 0 -- -- 99
2021-02-26 04:00:00 5.9 3 Nordeste 11 Nordeste 0 -- -- 99
2021-02-26 03:00:00 6 4 Norte 13 Nordeste 0 -- -- 100
2021-02-26 02:00:00 6.1 3 Norte 11 Norte 0 -- -- 100
2021-02-26 01:00:00 6.2 4 Nordeste 18 Norte 0 -- -- 100
2021-02-26 00:00:00 6.4 5 Norte 15 Nordeste 0 -- -- 100
2021-02-25 23:00:00 6.5 0 Calma 14 Nordeste 0 -- -- 100
2021-02-25 22:00:00 6.8 3 Norte 18 Nordeste 0 -- -- 100
2021-02-25 21:00:00 6.7 4 Norte 10 Noroeste 0 -- -- 99
2021-02-25 20:00:00 7.1 3 Oeste 19 Norte 0 -- -- 97
2021-02-25 19:00:00 7.8 5 Norte 19 Norte 0 -- -- 92
2021-02-25 18:00:00 9.8 2 Nordeste 20 Norte 0 -- -- 82
2021-02-25 17:00:00 10.7 10 Norte 20 Norte 0 -- -- 76
2021-02-25 16:00:00 12.4 10 Norte 23 Norte 0 -- -- 62
2021-02-25 15:00:00 14 9 Sudeste 19 Sudeste 0 -- -- 41
2021-02-25 14:00:00 12.7 8 Sudoeste 22 Sur 0 -- -- 57
2021-02-25 13:00:00 11.5 13 Sudoeste 21 Sudoeste 0 -- -- 56
2021-02-25 12:00:00 10.2 11 Sudoeste 19 Sur 0 -- -- 69
2021-02-25 11:00:00 9 8 Sudoeste 18 Sudoeste 0 -- -- 79
2021-02-25 10:00:00 6.6 5 Sudoeste 10 Sudoeste 0 -- -- 88
2021-02-25 09:00:00 6 2 Sur 12 Sur 0 -- -- 89
2021-02-25 08:00:00 5.8 7 Sur 15 Sur 0 -- -- 88
2021-02-25 07:00:00 5.4 3 Sudoeste 9 Sur 0 -- -- 87
2021-02-25 06:00:00 6.3 0 Calma 8 Oeste 0 -- -- 84
2021-02-25 05:00:00 6.6 0 Calma 14 Sur 0 -- -- 78
2021-02-25 04:00:00 7.5 7 Sur 19 Sudeste 0 -- -- 74
2021-02-25 03:00:00 7.9 5 Sur 17 Sudeste 0 -- -- 65
2021-02-25 02:00:00 7.4 3 Oeste 9 Este 0 -- -- 66
2021-02-25 01:00:00 8.5 3 Sudoeste 17 Sur 0 -- -- 65
2021-02-25 00:00:00 9.3 10 Sur 25 Sur 0 -- -- 64
2021-02-24 23:00:00 9.3 6 Sur 17 Este 0 -- -- 66
2021-02-24 22:00:00 9.3 2 Sur 13 Sudeste 0 -- -- 65
2021-02-24 21:00:00 10.3 6 Sudeste 18 Sudeste 0 -- -- 60
2021-02-24 20:00:00 10.9 7 Sur 24 Sur 0 -- -- 57
2021-02-24 19:00:00 11.6 11 Sur 33 Sur 0 -- -- 58
2021-02-24 18:00:00 12.7 18 Sur 46 Sur 0 -- -- 58
2021-02-24 17:00:00 13.8 25 Sur 46 Sur 0 -- -- 53
2021-02-24 16:00:00 14.4 26 Sur 49 Sudeste 0 -- -- 54
2021-02-24 15:00:00 14.7 23 Sur 48 Sudoeste 0 -- -- 57
2021-02-24 14:00:00 14.1 28 Sur 47 Sur 0 -- -- 62
2021-02-24 13:00:00 13.4 24 Sur 47 Sur 0 -- -- 66
2021-02-24 12:00:00 12.5 24 Sur 48 Sur 0 -- -- 69
2021-02-24 11:00:00 11.2 26 Sur 40 Sur 0 -- -- 73
2021-02-24 10:00:00 9.8 24 Sur 41 Sudoeste 0 -- -- 79
2021-02-24 09:00:00 8.9 22 Sur 41 Sur 0 -- -- 81
2021-02-24 08:00:00 8.4 17 Sur 35 Sur 0 -- -- 83
2021-02-24 07:00:00 9 18 Sudoeste 37 Sur 0 -- -- 79
2021-02-24 06:00:00 8.7 15 Sur 33 Sur 0 -- -- 81
2021-02-24 05:00:00 8.4 15 Sur 35 Sur 0 -- -- 86
2021-02-24 04:00:00 8.4 15 Sur 33 Sur 0 -- -- 86
2021-02-24 03:00:00 8.4 13 Sur 35 Sur 0 -- -- 85
2021-02-24 02:00:00 8.4 23 Sur 44 Sur 0 -- -- 86
2021-02-24 01:00:00 8.4 19 Sudoeste 39 Sur 0 -- -- 84
2021-02-24 00:00:00 8.2 16 Sur 30 Sudoeste 0 -- -- 86
2021-02-23 23:00:00 8.3 13 Sur 28 Sur 0 -- -- 82
2021-02-23 22:00:00 7.7 8 Sudoeste 24 Sudoeste 0 -- -- 82
2021-02-23 21:00:00 7.7 6 Sudoeste 19 Sur 0 -- -- 83
2021-02-23 20:00:00 8.5 11 Sur 22 Sur 0 -- -- 76
2021-02-23 19:00:00 9.2 11 Sudoeste 38 Sudoeste 0 -- -- 71
2021-02-23 18:00:00 10.2 17 Sur 46 Sur 0 -- -- 65
2021-02-23 17:00:00 10.7 22 Sur 60 Sur 0 -- -- 66
2021-02-23 16:00:00 11.1 22 Sur 45 Sur 0 -- -- 69
2021-02-23 15:00:00 10.9 23 Sur 51 Sur 0 -- -- 71
2021-02-23 14:00:00 9.6 31 Sur 50 Sur 0 -- -- 75
2021-02-23 13:00:00 9.2 25 Sur 54 Sur 0 -- -- 82
2021-02-23 12:00:00 7.6 27 Sur 51 Sur 0 -- -- 88
2021-02-23 11:00:00 7.2 26 Sur 48 Sur 0 -- -- 91
2021-02-23 10:00:00 5.8 15 Sudoeste 41 Sur 0 -- -- 98
2021-02-23 09:00:00 5.3 14 Sudoeste 30 Sur 0 -- -- 100
2021-02-23 08:00:00 4.7 11 Sudoeste 30 Sudoeste 0 -- -- 100
2021-02-23 07:00:00 4.4 10 Sudoeste 21 Sur 0 -- -- 100
2021-02-23 06:00:00 4.4 8 Sudoeste 19 Sur 0 -- -- 100
2021-02-23 05:00:00 3.9 5 Sudeste 10 Sudeste 0 -- -- 100
2021-02-23 04:00:00 2.8 3 Sudoeste 8 Sudeste 0 -- -- 100
2021-02-23 03:00:00 2.3 3 Sudoeste 9 Sur 0 -- -- 100
2021-02-23 02:00:00 2.6 3 Oeste 10 Sudeste 0 -- -- 100
2021-02-23 01:00:00 2.7 3 Nordeste 6 Norte 0 -- -- 100
2021-02-23 00:00:00 1.8 2 Oeste 8 Nordeste 0 -- -- 100
2021-02-22 23:00:00 2.4 0 Calma 6 Sudeste 0 -- -- 100
2021-02-22 22:00:00 3.1 2 Nordeste 4 Nordeste 0 -- -- 100
2021-02-22 21:00:00 3.6 4 Este 14 Este 0.2 -- -- 100
2021-02-22 20:00:00 3.6 2 Este 15 Este 0 -- -- 100
2021-02-22 19:00:00 3.5 3 Sur 17 Este 0 -- -- 100
2021-02-22 18:00:00 4.1 5 Sudeste 14 Este 0 -- -- 99
2021-02-22 17:00:00 4.3 3 Sudoeste 18 Norte 0.4 -- -- 99
2021-02-22 16:00:00 4.4 2 Este 15 Norte 0.6 -- -- 99
2021-02-22 15:00:00 4.1 3 Sur 22 Norte 0.2 -- -- 99
2021-02-22 14:00:00 3.5 14 Nordeste 27 Nordeste 0.2 -- -- 98
2021-02-22 13:00:00 2.9 3 Norte 14 Norte 1.8 -- -- 98
2021-02-22 12:00:00 2 6 Norte 15 Sur 1.6 -- -- 100
2021-02-22 11:00:00 0.9 0 Calma 4 Sur 0.4 -- -- 100
2021-02-22 10:00:00 0.3 0 Calma 6 Sur 1.8 -- -- 100
2021-02-22 09:00:00 0.1 0 Calma 19 Sudeste 4.4 -- -- 100
2021-02-22 08:00:00 1 8 Este 17 Nordeste 5.4 -- -- 99
2021-02-22 07:00:00 0.9 6 Este 28 Norte 6.4 -- -- 99
2021-02-22 06:00:00 1.6 15 Nordeste 36 Sudeste 10 -- -- 98
2021-02-22 05:00:00 2.8 11 Este 37 Noroeste 9 -- -- 94
2021-02-22 04:00:00 4.4 10 Norte 29 Norte 1.6 -- -- 94
2021-02-22 03:00:00 6.1 3 Sudoeste 23 Norte 0 -- -- 97
2021-02-22 02:00:00 6.4 15 Norte 26 Norte 0 -- -- 97
2021-02-22 01:00:00 9.4 7 Sudeste 23 Sudoeste 0 -- -- 71
2021-02-22 00:00:00 9.1 7 Sudeste 30 Sudeste 0.2 -- -- 76
2021-02-21 23:00:00 11.3 10 Sudeste 23 Sudeste 0 -- -- 55
2021-02-21 22:00:00 10.8 7 Sur 27 Sur 0 -- -- 57
2021-02-21 21:00:00 10.9 9 Sudeste 22 Sudoeste 0 -- -- 56
2021-02-21 20:00:00 10.2 9 Sur 24 Sur 0 -- -- 59
2021-02-21 19:00:00 9.7 13 Sur 27 Sur 0 -- -- 64
2021-02-21 18:00:00 10.4 12 Sur 26 Sur 0 -- -- 63
2021-02-21 17:00:00 11.3 15 Sudoeste 39 Sur 0 -- -- 59
2021-02-21 16:00:00 12.7 17 Sur 32 Sur 0 -- -- 51
2021-02-21 15:00:00 12.4 18 Sur 47 Sudeste 0 -- -- 49
2021-02-21 14:00:00 13.3 25 Sur 45 Sur 0 -- -- 39
2021-02-21 13:00:00 13.8 18 Sur 41 Sur 0 -- -- 40
2021-02-21 12:00:00 13.9 20 Sur 42 Sur 0 -- -- 37
2021-02-21 11:00:00 13.1 17 Sur 40 Sur 0 -- -- 36
2021-02-21 10:00:00 11.8 16 Sur 34 Sur 0 -- -- 38
2021-02-21 09:00:00 10.8 14 Sudeste 38 Sur 0 -- -- 39
2021-02-21 08:00:00 9.9 14 Sur 40 Sudeste 0 -- -- 42
2021-02-21 07:00:00 10.1 17 Sudeste 39 Sudeste 0 -- -- 41
2021-02-21 06:00:00 10.2 18 Sur 43 Sur 0 -- -- 40
2021-02-21 05:00:00 10.7 17 Sur 40 Sudeste 0 -- -- 38
2021-02-21 04:00:00 10.9 13 Sur 33 Sur 0 -- -- 37
2021-02-21 03:00:00 11.2 15 Sur 39 Sur 0 -- -- 37
2021-02-21 02:00:00 11.5 17 Sur 38 Sur 0 -- -- 37
2021-02-21 01:00:00 11.8 21 Sur 42 Sur 0 -- -- 37
2021-02-21 00:00:00 11.9 21 Sur 47 Sur 0 -- -- 37
2021-02-20 23:00:00 12.4 21 Sur 56 Sur 0 -- -- 35
2021-02-20 22:00:00 12.8 23 Sur 57 Sur 0 -- -- 36
2021-02-20 21:00:00 13 18 Sur 50 Sur 0 -- -- 36
2021-02-20 20:00:00 13.1 28 Sur 56 Sudoeste 0 -- -- 38
2021-02-20 19:00:00 13.8 28 Sur 53 Sur 0 -- -- 37
2021-02-20 18:00:00 14.6 18 Sur 55 Sudeste 0 -- -- 35
2021-02-20 17:00:00 16.3 19 Sur 57 Sudeste 0 -- -- 30
2021-02-20 16:00:00 16.3 24 Sur 53 Sur 0 -- -- 33
2021-02-20 15:00:00 15.9 27 Sur 58 Sudoeste 0 -- -- 35
2021-02-20 14:00:00 15.6 30 Sur 61 Sudoeste 0 -- -- 33
2021-02-20 13:00:00 15.4 27 Sur 48 Sur 0 -- -- 39
2021-02-20 12:00:00 14.2 27 Sur 52 Sur 0 -- -- 41
2021-02-20 11:00:00 13.1 24 Sur 46 Sur 0 -- -- 40
2021-02-20 10:00:00 12.2 20 Sur 51 Sur 0 -- -- 44
2021-02-20 09:00:00 12.1 29 Sur 58 Sur 0 -- -- 44
2021-02-20 08:00:00 11.6 29 Sur 64 Sudoeste 0 -- -- 42
2021-02-20 07:00:00 11.8 32 Sur 62 Sur 0 -- -- 40
2021-02-20 06:00:00 11.2 26 Sur 55 Sudoeste 0 -- -- 44
2021-02-20 05:00:00 11.6 28 Sur 60 Sur 0 -- -- 42
2021-02-20 04:00:00 11.9 31 Sur 64 Sur 0 -- -- 42
2021-02-20 03:00:00 12 29 Sur 65 Sudoeste 0 -- -- 42
2021-02-20 02:00:00 12 30 Sur 56 Sur 0 -- -- 42
2021-02-20 01:00:00 11.4 19 Sur 42 Sur 0 -- -- 45
2021-02-20 00:00:00 11.4 21 Sur 42 Sur 0 -- -- 46
2021-02-19 23:00:00 11.5 23 Sur 43 Sur 0 -- -- 46
2021-02-19 22:00:00 10.9 15 Sur 44 Sur 0 -- -- 53
2021-02-19 21:00:00 10.6 9 Sudeste 26 Sudeste 0 -- -- 54
2021-02-19 20:00:00 10.7 10 Sur 22 Sudeste 0 -- -- 54
2021-02-19 19:00:00 11.1 10 Sudeste 37 Sur 0 -- -- 54
2021-02-19 18:00:00 12.3 25 Sur 44 Sur 0 -- -- 49
2021-02-19 17:00:00 13.3 22 Sur 50 Sur 0 -- -- 44
2021-02-19 16:00:00 13.5 21 Sur 48 Sur 0 -- -- 47
2021-02-19 15:00:00 13.4 27 Sur 52 Sur 0 -- -- 43
2021-02-19 14:00:00 13 22 Sur 50 Sudoeste 0 -- -- 48
2021-02-19 13:00:00 12.4 23 Sur 47 Sudeste 0 -- -- 52
2021-02-19 12:00:00 12.1 24 Sur 43 Sur 0 -- -- 47
2021-02-19 11:00:00 11.1 24 Sur 49 Sur 0 -- -- 52
2021-02-19 10:00:00 10 21 Sur 41 Sur 0 -- -- 54
2021-02-19 09:00:00 8.8 15 Sur 32 Sudeste 0 -- -- 59
2021-02-19 08:00:00 8.1 13 Sur 31 Sudoeste 0 -- -- 60
2021-02-19 07:00:00 7.8 12 Sur 28 Sur 0 -- -- 62
2021-02-19 06:00:00 7.5 12 Sur 31 Sur 0 -- -- 64
2021-02-19 05:00:00 7.8 12 Sur 36 Sudeste 0 -- -- 64
2021-02-19 04:00:00 7.8 15 Sur 34 Sur 0 -- -- 66
2021-02-19 03:00:00 7.9 17 Sur 30 Sur 0 -- -- 64
2021-02-19 02:00:00 8.3 13 Sur 27 Sur 0 -- -- 61
2021-02-19 01:00:00 7.4 4 Oeste 11 Sudeste 0 -- -- 69
2021-02-19 00:00:00 8.4 3 Sudoeste 9 Sudoeste 0 -- -- 62
2021-02-18 23:00:00 8.9 3 Sudoeste 12 Sudeste 0 -- -- 65
2021-02-18 22:00:00 7.5 0 Calma 3 Este 0 -- -- 76
2021-02-18 21:00:00 9 0 Calma 5 Noroeste 0 -- -- 68
2021-02-18 20:00:00 9.6 0 Calma 6 Sudoeste 0 -- -- 64
2021-02-18 19:00:00 10.3 2 Oeste 14 Sur 0 -- -- 62
2021-02-18 18:00:00 11.6 6 Sudoeste 18 Sudoeste 0 -- -- 57
2021-02-18 17:00:00 12 12 Sudoeste 28 Sudoeste 0 -- -- 54
2021-02-18 16:00:00 13.3 10 Sudoeste 32 Sudoeste 0 -- -- 50
2021-02-18 15:00:00 12.1 18 Sudoeste 40 Sur 0 -- -- 54
2021-02-18 14:00:00 11.6 15 Sudoeste 42 Sur 0 -- -- 54
2021-02-18 13:00:00 11.5 19 Sur 42 Sur 0 -- -- 54
2021-02-18 12:00:00 11 23 Sur 42 Sur 0 -- -- 53
2021-02-18 11:00:00 10.5 20 Sudoeste 45 Sur 0 -- -- 54
2021-02-18 10:00:00 10.2 25 Sur 46 Sudoeste 0 -- -- 55
2021-02-18 09:00:00 10 24 Sur 42 Sur 0 -- -- 57
2021-02-18 08:00:00 9.6 20 Sur 40 Sudoeste 0 -- -- 58
2021-02-18 07:00:00 9.7 21 Sur 39 Sur 0 -- -- 59
2021-02-18 06:00:00 9.8 16 Sur 37 Sur 0 -- -- 61
2021-02-18 05:00:00 10 19 Sur 36 Sudoeste 0 -- -- 62
2021-02-18 04:00:00 9.9 19 Sur 37 Sur 0 -- -- 65
2021-02-18 03:00:00 10.3 20 Sur 37 Sur 0 -- -- 63
2021-02-18 02:00:00 10.2 16 Sur 31 Sur 0 -- -- 66
2021-02-18 01:00:00 10.6 15 Sur 32 Sur 0 -- -- 66
2021-02-18 00:00:00 9.9 13 Sur 34 Sudeste 0 -- -- 71
2021-02-17 23:00:00 10 13 Sur 26 Sur 0 -- -- 73
2021-02-17 22:00:00 10.3 11 Sudoeste 23 Sudeste 0 -- -- 73
2021-02-17 21:00:00 9.7 9 Sur 21 Sudeste 0 -- -- 76
2021-02-17 20:00:00 10.5 10 Sur 31 Sur 0 -- -- 74
2021-02-17 19:00:00 10.4 14 Sur 29 Sur 0 -- -- 75
2021-02-17 18:00:00 10.5 16 Sur 29 Sudoeste 0 -- -- 77
2021-02-17 17:00:00 10.7 15 Sur 33 Sur 0 -- -- 75
2021-02-17 16:00:00 11.2 17 Sur 38 Sur 0 -- -- 74
2021-02-17 15:00:00 11.7 18 Sur 39 Sur 0 -- -- 69
2021-02-17 14:00:00 12.3 19 Sur 40 Sur 0 -- -- 69
2021-02-17 13:00:00 10.8 22 Sur 35 Sur 0 -- -- 76
2021-02-17 12:00:00 10.4 20 Sur 33 Sur 0 -- -- 78
2021-02-17 11:00:00 9.7 10 Sur 27 Sur 0 -- -- 80
2021-02-17 10:00:00 8.7 6 Sudeste 12 Sudeste 0 -- -- 82
2021-02-17 09:00:00 5.7 0 Calma 5 Oeste 0 -- -- 95
2021-02-17 08:00:00 5.4 2 Este 9 Sudeste 0 -- -- 94
2021-02-17 07:00:00 5.1 3 Sudoeste 6 Sudeste 0 -- -- 98
2021-02-17 06:00:00 4.1 0 Calma 3 Este 0 -- -- 100
2021-02-17 05:00:00 3.9 0 Calma 7 Sur 0 -- -- 100
2021-02-17 04:00:00 4.7 0 Calma 4 Nordeste 0 -- -- 98
2021-02-17 03:00:00 5.4 0 Calma 4 Oeste 0 -- -- 98
2021-02-17 02:00:00 5.4 2 Noroeste 6 Nordeste 0 -- -- 96
2021-02-17 01:00:00 6.4 0 Calma 5 Oeste 0 -- -- 92
2021-02-17 00:00:00 6.5 0 Calma 3 Nordeste 0 -- -- 92
2021-02-16 23:00:00 6.9 0 Calma 6 Norte 0 -- -- 91
2021-02-16 22:00:00 7.1 2 Norte 4 Nordeste 0 -- -- 89
2021-02-16 21:00:00 6.5 3 Norte 4 Norte 0 -- -- 91
2021-02-16 20:00:00 8.2 0 Calma 4 Oeste 0 -- -- 84
2021-02-16 19:00:00 8.2 2 Norte 3 Nordeste 0 -- -- 85
2021-02-16 18:00:00 9.6 3 Sur 9 Este 0 -- -- 79
2021-02-16 17:00:00 9.7 4 Sudoeste 17 Oeste 0 -- -- 81
2021-02-16 16:00:00 10.3 10 Sudoeste 23 Sudoeste 0 -- -- 71
2021-02-16 15:00:00 10.6 12 Sudoeste 23 Sur 0 -- -- 72
2021-02-16 14:00:00 9.1 8 Sudoeste 17 Sudoeste 0 -- -- 75
2021-02-16 13:00:00 9.4 6 Sudoeste 40 Sur 0 -- -- 70
2021-02-16 12:00:00 9.4 18 Sur 34 Sur 0 -- -- 69
2021-02-16 11:00:00 7.7 9 Sudeste 31 Sur 0 -- -- 76
2021-02-16 10:00:00 6.5 8 Sur 42 Sur 0 -- -- 81
2021-02-16 09:00:00 6.4 11 Sudoeste 32 Sudoeste 0 -- -- 80
2021-02-16 08:00:00 5.6 15 Sudeste 28 Sudeste 0 -- -- 84
2021-02-16 07:00:00 5.6 10 Sudeste 24 Este 0 -- -- 84
2021-02-16 06:00:00 5.9 10 Sur 26 Sudeste 0 -- -- 84
2021-02-16 05:00:00 5.6 15 Sur 28 Sudeste 0 -- -- 87
2021-02-16 04:00:00 5.2 6 Sudeste 17 Sudeste 0 -- -- 88
2021-02-16 03:00:00 5.2 5 Sur 18 Sur 0 -- -- 89
2021-02-16 02:00:00 5.3 5 Sur 12 Sur 0 -- -- 88
2021-02-16 01:00:00 5 5 Sudeste 13 Sur 0 -- -- 91
2021-02-16 00:00:00 5.8 8 Sur 20 Sudoeste 0 -- -- 87
2021-02-15 23:00:00 6.1 12 Sur 22 Sur 0 -- -- 85
2021-02-15 22:00:00 6.3 7 Sudoeste 19 Sur 0 -- -- 84
2021-02-15 21:00:00 6.8 10 Sur 24 Sur 0 -- -- 81
2021-02-15 20:00:00 7.4 13 Sudoeste 25 Sur 0 -- -- 80
2021-02-15 19:00:00 7 5 Sur 18 Sudoeste 0 -- -- 85
2021-02-15 18:00:00 7.8 9 Sur 22 Sur 0 -- -- 84
2021-02-15 17:00:00 8.7 16 Sur 28 Sudoeste 0 -- -- 82
2021-02-15 16:00:00 10.9 16 Sur 32 Sudoeste 0 -- -- 75
2021-02-15 15:00:00 11.8 16 Sur 30 Sur 0 -- -- 71
2021-02-15 14:00:00 10.5 13 Sur 28 Sudoeste 0 -- -- 76
2021-02-15 13:00:00 8.8 14 Sur 31 Sudoeste 0 -- -- 79
2021-02-15 12:00:00 8.1 16 Sur 32 Sur 0 -- -- 81
2021-02-15 11:00:00 6.9 14 Sudoeste 28 Sudoeste 0 -- -- 86
2021-02-15 10:00:00 5.8 6 Sur 17 Sur 0 -- -- 89
2021-02-15 09:00:00 4.5 6 Sur 13 Sur 0 -- -- 92
2021-02-15 08:00:00 3.4 0 Calma 7 Sudeste 0 -- -- 97
2021-02-15 07:00:00 4.1 5 Sur 11 Sudeste 0 -- -- 92
2021-02-15 06:00:00 3.2 0 Calma 6 Sudoeste 0 -- -- 96
2021-02-15 05:00:00 4.2 4 Sur 23 Sudeste 0 -- -- 90
2021-02-15 04:00:00 4.4 7 Sudeste 26 Sudeste 0 -- -- 89
2021-02-15 03:00:00 4.3 8 Sudeste 16 Sudeste 0 -- -- 91
2021-02-15 02:00:00 4.4 9 Sur 19 Sudeste 0 -- -- 91
2021-02-15 01:00:00 4.6 6 Sur 17 Sudeste 0 -- -- 90
2021-02-15 00:00:00 5 9 Sur 20 Sur 0 -- -- 90
2021-02-14 23:00:00 5.4 8 Sudeste 20 Sur 0 -- -- 89
2021-02-14 22:00:00 5.4 9 Sur 17 Sur 0 -- -- 89
2021-02-14 21:00:00 5.7 6 Sur 18 Sur 0 -- -- 86
2021-02-14 20:00:00 6.1 7 Sur 20 Sudoeste 0 -- -- 84
2021-02-14 19:00:00 7.3 11 Sudoeste 27 Sudoeste 0 -- -- 80
2021-02-14 18:00:00 8.1 13 Sur 28 Sur 0 -- -- 79
2021-02-14 17:00:00 9 14 Sudoeste 34 Sur 0 -- -- 77
2021-02-14 16:00:00 10.9 21 Sur 41 Sur 0 -- -- 68
2021-02-14 15:00:00 11.1 19 Sur 39 Sudoeste 0 -- -- 67
2021-02-14 14:00:00 10.6 19 Sudoeste 34 Sur 0 -- -- 66
2021-02-14 13:00:00 10.3 15 Sur 33 Sur 0 -- -- 72
2021-02-14 12:00:00 9.2 12 Sur 27 Sur 0 -- -- 75
2021-02-14 11:00:00 7.4 8 Sudeste 17 Sur 0 -- -- 73
2021-02-14 10:00:00 5.7 5 Sur 13 Sur 0 -- -- 76
2021-02-14 09:00:00 4.6 2 Este 9 Sudeste 0 -- -- 72
2021-02-14 08:00:00 1.8 2 Noroeste 9 Norte 0 -- -- 84
2021-02-14 07:00:00 2 4 Norte 8 Norte 0 -- -- 86
2021-02-14 06:00:00 2.3 4 Norte 8 Nordeste 0 -- -- 89
2021-02-14 05:00:00 -0.6 0 Calma 3 Nordeste 0 -- -- 96
2021-02-14 04:00:00 0.9 0 Calma 6 Norte 0 -- -- 97
2021-02-14 03:00:00 1 2 Norte 4 Nordeste 0 -- -- 100
2021-02-14 02:00:00 0.8 0 Calma 4 Este 0 -- -- 100
2021-02-14 01:00:00 1.4 0 Calma 3 Noroeste 0 -- -- 100
2021-02-14 00:00:00 2.2 0 Calma 9 Nordeste 0 -- -- 100
2021-02-13 23:00:00 3.7 4 Nordeste 6 Nordeste 0 -- -- 100
2021-02-13 22:00:00 4.2 2 Nordeste 15 Este 0 -- -- 96
2021-02-13 21:00:00 5.2 3 Nordeste 13 Nordeste 0 -- -- 97
2021-02-13 20:00:00 5.6 3 Noroeste 14 Noroeste 0 -- -- 97
2021-02-13 19:00:00 5.9 3 Sudoeste 18 Noroeste 0 -- -- 95
2021-02-13 18:00:00 6.2 5 Noroeste 13 Norte 0 -- -- 92
2021-02-13 17:00:00 7.1 3 Noroeste 17 Noroeste 0 -- -- 86
2021-02-13 16:00:00 7 7 Noroeste 15 Norte 0 -- -- 90
2021-02-13 15:00:00 7.6 4 Oeste 14 Noroeste 0 -- -- 85
2021-02-13 14:00:00 7.6 6 Norte 26 Noroeste 0 -- -- 87
2021-02-13 13:00:00 8.6 8 Norte 20 Norte 0 -- -- 81
2021-02-13 08:00:00 4.5 10 Norte 22 Nordeste 0 -- -- 98
2021-02-13 07:00:00 4.6 4 Sudeste 17 Norte 0 -- -- 100
2021-02-13 06:00:00 4.9 8 Noroeste 19 Norte 0.4 -- -- 100
2021-02-13 05:00:00 5 4 Nordeste 8 Este 0.6 -- -- 100
2021-02-13 04:00:00 5 0 Calma 7 Sudoeste 0.8 -- -- 100
2021-02-13 03:00:00 5.3 4 Sur 13 Sudoeste 0.8 -- -- 100
2021-02-13 02:00:00 5.4 4 Sudoeste 13 Oeste 1.2 -- -- 100
2021-02-13 01:00:00 5.6 6 Sur 12 Sur 0.6 -- -- 100
2021-02-13 00:00:00 5.8 6 Noroeste 19 Nordeste 3 -- -- 100
2021-02-12 23:00:00 5.9 5 Sudoeste 17 Este 1.4 -- -- 100
2021-02-12 22:00:00 6.1 5 Sudoeste 24 Oeste 1.6 -- -- 100
2021-02-12 21:00:00 6.1 7 Sudoeste 26 Oeste 1 -- -- 100
2021-02-12 20:00:00 6.2 7 Sudoeste 32 Noroeste 0.4 -- -- 100
2021-02-12 19:00:00 6 5 Oeste 28 Nordeste 1.8 -- -- 100
2021-02-12 18:00:00 6 8 Sudoeste 32 Noroeste 1.6 -- -- 99
2021-02-12 17:00:00 6.5 9 Norte 35 Este 3 -- -- 96
2021-02-12 16:00:00 6.6 8 Norte 40 Nordeste 3.4 -- -- 98
2021-02-12 15:00:00 7.1 4 Sudeste 21 Nordeste 1.6 -- -- 97
2021-02-12 14:00:00 7.3 6 Sudeste 20 Sur 2.2 -- -- 97
2021-02-12 13:00:00 7.4 3 Sur 18 Nordeste 3.2 -- -- 98
2021-02-12 12:00:00 7.5 6 Oeste 18 Oeste 0.4 -- -- 98
2021-02-12 11:00:00 7.4 6 Oeste 21 Sudoeste 4 -- -- 99
2021-02-12 10:00:00 7.4 3 Oeste 19 Sudoeste 2 -- -- 100
2021-02-12 09:00:00 7.4 2 Sudoeste 13 Sudoeste 0.6 -- -- 100
2021-02-12 08:00:00 7.5 3 Sudoeste 27 Sudoeste 0.6 -- -- 100
2021-02-12 07:00:00 8 7 Sudoeste 28 Sur 0.6 -- -- 99
2021-02-12 06:00:00 9.3 17 Sur 40 Sur 0 -- -- 87
2021-02-12 05:00:00 8.9 15 Sur 27 Sudoeste 0 -- -- 90
2021-02-12 04:00:00 8.8 8 Sur 18 Sudeste 0 -- -- 91
2021-02-12 03:00:00 8.5 6 Sudeste 14 Sur 0 -- -- 93
2021-02-12 02:00:00 8.1 5 Sur 12 Este 0 -- -- 94
2021-02-12 01:00:00 7.9 4 Este 14 Sudeste 0 -- -- 94
2021-02-12 00:00:00 7.5 3 Nordeste 8 Nordeste 0 -- -- 96
2021-02-11 23:00:00 6.8 3 Nordeste 11 Este 0 -- -- 99
2021-02-11 22:00:00 7.2 3 Este 11 Sudeste 0 -- -- 99
2021-02-11 21:00:00 6.9 0 Calma 5 Nordeste 0 -- -- 99
2021-02-11 20:00:00 7.2 3 Nordeste 4 Norte 0 -- -- 100
2021-02-11 19:00:00 7.9 0 Calma 6 Sudoeste 0 -- -- 97
2021-02-11 18:00:00 9.3 0 Calma 9 Sudeste 0 -- -- 91
2021-02-11 17:00:00 10.3 4 Sur 8 Sur 0 -- -- 86
2021-02-11 16:00:00 10.5 2 Oeste 9 Sudeste 0 -- -- 84
2021-02-11 15:00:00 10 4 Sur 12 Este 0 -- -- 86
2021-02-11 14:00:00 8.6 5 Sudeste 11 Sur 0 -- -- 91
2021-02-11 13:00:00 7.9 5 Sudeste 11 Sudeste 0 -- -- 89
2021-02-11 12:00:00 7.5 3 Sur 10 Sudeste 0 -- -- 86
2021-02-11 11:00:00 6.1 4 Este 9 Este 0 -- -- 88
2021-02-11 10:00:00 4.7 2 Sudeste 7 Este 0 -- -- 89
2021-02-11 09:00:00 2.9 0 Calma 5 Nordeste 0 -- -- 98
2021-02-11 08:00:00 1.5 4 Nordeste 8 Nordeste 0 -- -- 100
2021-02-11 07:00:00 1.1 3 Norte 5 Norte 0 -- -- 100
2021-02-11 06:00:00 0.5 3 Norte 6 Nordeste 0 -- -- 100
2021-02-11 05:00:00 1 2 Noroeste 4 Sudoeste 0 -- -- 100
2021-02-11 04:00:00 0 0 Calma 6 Norte 0 -- -- 100
2021-02-11 03:00:00 1.3 3 Norte 7 Este 0 -- -- 100
2021-02-11 02:00:00 0.6 2 Norte 6 Nordeste 0 -- -- 100
2021-02-11 01:00:00 0.8 3 Norte 6 Este 0 -- -- 100
2021-02-11 00:00:00 0.7 0 Calma 5 Nordeste 0 -- -- 100
2021-02-10 23:00:00 1.7 2 Norte 5 Norte 0 -- -- 100
2021-02-10 22:00:00 2.1 2 Oeste 4 Sur 0 -- -- 100
2021-02-10 21:00:00 2.6 0 Calma 4 Norte 0 -- -- 100
2021-02-10 20:00:00 3.3 2 Norte 8 Este 0 -- -- 100
2021-02-10 19:00:00 3.8 5 Oeste 27 Sudoeste 0 -- -- 96
2021-02-10 18:00:00 3.7 4 Sudoeste 14 Sur 0.4 -- -- 99
2021-02-10 17:00:00 4.1 4 Sudeste 17 Sudoeste 0.2 -- -- 96
2021-02-10 16:00:00 4 5 Sudoeste 21 Oeste 0.8 -- -- 98
2021-02-10 15:00:00 3.9 6 Oeste 22 Noroeste 0.6 -- -- 97
2021-02-10 14:00:00 3.3 6 Sudoeste 15 Sudoeste 0.4 -- -- 100
2021-02-10 13:00:00 3.2 4 Sur 7 Sur 0.8 -- -- 100
2021-02-10 12:00:00 2.7 3 Oeste 12 Sudoeste 0 -- -- 100
2021-02-10 11:00:00 0.9 3 Sudoeste 7 Sur 1 -- -- 100
2021-02-10 10:00:00 0.3 0 Calma 2 Oeste 0.2 -- -- 100
2021-02-10 09:00:00 0.1 0 Calma 2 Este 0.6 -- -- 100
2021-02-10 08:00:00 0.1 0 Calma 5 Oeste 1.8 -- -- 100
2021-02-10 07:00:00 1.4 2 Oeste 6 Oeste 1 -- -- 99
2021-02-10 06:00:00 2.7 2 Oeste 9 Oeste 0 -- -- 95
2021-02-10 05:00:00 2.5 3 Sudoeste 15 Sudoeste 0 -- -- 98
2021-02-10 04:00:00 2.9 8 Sudoeste 24 Sur 0 -- -- 94
2021-02-10 03:00:00 2.8 6 Sudoeste 23 Sur 0 -- -- 96
2021-02-10 02:00:00 3 9 Sudoeste 27 Sur 0 -- -- 95
2021-02-10 01:00:00 3.4 10 Sur 20 Sudoeste 0 -- -- 93
2021-02-10 00:00:00 3.2 6 Sur 18 Sur 0.2 -- -- 95
2021-02-09 23:00:00 3.5 4 Sudeste 9 Este 0 -- -- 94
2021-02-09 22:00:00 2.1 0 Calma 9 Sur 0 -- -- 99
2021-02-09 21:00:00 1.8 2 Sudoeste 11 Sudoeste 0 -- -- 100
2021-02-09 20:00:00 3.3 5 Sur 18 Sudoeste 0 -- -- 96
2021-02-09 19:00:00 3.7 6 Sudoeste 28 Sudoeste 0 -- -- 96
2021-02-09 18:00:00 4.9 8 Sudoeste 25 Sur 0 -- -- 95
2021-02-09 17:00:00 4.8 8 Sudoeste 37 Sur 1.2 -- -- 98
2021-02-09 16:00:00 5.3 24 Sur 49 Sur 0.8 -- -- 93
2021-02-09 15:00:00 5.1 18 Sur 40 Sudeste 0.6 -- -- 95
2021-02-09 14:00:00 5 21 Sur 46 Sudeste 0.2 -- -- 93
2021-02-09 13:00:00 6 24 Sur 45 Sur 0 -- -- 87
2021-02-09 12:00:00 5.1 19 Sur 40 Sur 0 -- -- 88
2021-02-09 11:00:00 4.1 15 Sur 42 Sur 0 -- -- 92
2021-02-09 10:00:00 4 15 Sur 37 Sur 0 -- -- 91
2021-02-09 09:00:00 4 14 Sur 30 Sur 0 -- -- 94
2021-02-09 08:00:00 3.7 6 Sur 17 Sur 0 -- -- 97
2021-02-09 07:00:00 3.1 3 Sudoeste 19 Sudoeste 0 -- -- 100
2021-02-09 06:00:00 3.2 4 Sudoeste 14 Sur 0 -- -- 100
2021-02-09 05:00:00 2.7 0 Calma 12 Sudoeste 0 -- -- 100
2021-02-09 04:00:00 2.4 3 Sudoeste 6 Sur 0.2 -- -- 100
2021-02-09 03:00:00 2.7 2 Sudeste 7 Sur 0 -- -- 100
2021-02-09 02:00:00 2.6 0 Calma 9 Sudoeste 0 -- -- 100
2021-02-09 01:00:00 2.7 2 Sur 8 Sudoeste 0 -- -- 100
2021-02-09 00:00:00 2.6 3 Sur 5 Sur 0 -- -- 100
2021-02-08 23:00:00 2.4 2 Norte 4 Nordeste 0.2 -- -- 100
2021-02-08 22:00:00 2.2 2 Nordeste 9 Este 0 -- -- 100
2021-02-08 21:00:00 2.1 2 Este 7 Este 0 -- -- 100
2021-02-08 20:00:00 1.8 0 Calma 2 Nordeste 0 -- -- 100
2021-02-08 19:00:00 1.4 2 Norte 13 Noroeste 0 -- -- 100
2021-02-08 18:00:00 2.5 6 Norte 18 Noroeste 7.2 -- -- 98
2021-02-08 17:00:00 6.7 2 Noroeste 14 Sur 0 -- -- 87
2021-02-08 16:00:00 6.5 5 Sudoeste 11 Sudoeste 0 -- -- 94
2021-02-08 15:00:00 4.1 4 Sudoeste 8 Sudoeste 0 -- -- 99
2021-02-08 14:00:00 3.9 3 Sur 6 Sudeste 0.6 -- -- 97
2021-02-08 13:00:00 3.4 0 Calma 8 Oeste 1.2 -- -- 98
2021-02-08 12:00:00 3.4 3 Oeste 10 Sur 2.4 -- -- 98
2021-02-08 11:00:00 3.6 3 Sudoeste 9 Sudoeste 1.2 -- -- 100
2021-02-08 10:00:00 3.1 3 Sudeste 9 Sudeste 1.6 -- -- 100
2021-02-08 09:00:00 2.6 2 Sudoeste 8 Sudoeste 0.2 -- -- 100
2021-02-08 08:00:00 2.5 0 Calma 9 Este 0 -- -- 100
2021-02-08 07:00:00 2.3 3 Este 14 Sur 0.2 -- -- 100
2021-02-08 06:00:00 2.2 0 Calma 10 Oeste 0.8 -- -- 100
2021-02-08 05:00:00 2.4 5 Sudoeste 13 Sur 0.6 -- -- 100
2021-02-08 04:00:00 2.7 0 Calma 9 Sur 0 -- -- 100
2021-02-08 03:00:00 2.5 4 Sudoeste 11 Sudoeste 0 -- -- 100
2021-02-08 02:00:00 2.2 7 Sur 17 Sudoeste 0 -- -- 100
2021-02-08 01:00:00 1.4 0 Calma 8 Sudeste 0.2 -- -- 100
2021-02-08 00:00:00 1.1 2 Sudeste 7 Sudeste 1 -- -- 100
2021-02-07 23:00:00 0.9 3 Este 7 Sudeste 1.4 -- -- 100
2021-02-07 22:00:00 1.9 2 Sudeste 9 Sudoeste 0.2 -- -- 99
2021-02-07 21:00:00 2.3 5 Sudoeste 12 Sudoeste 0 -- -- 97
2021-02-07 20:00:00 2.3 0 Calma 7 Sudoeste 0 -- -- 98
2021-02-07 19:00:00 2.4 2 Sudoeste 10 Sur 0 -- -- 99
2021-02-07 18:00:00 3 4 Sudoeste 9 Sur 0 -- -- 92
2021-02-07 17:00:00 3.3 0 Calma 9 Oeste 0 -- -- 90
2021-02-07 16:00:00 3.4 3 Sudoeste 9 Sudoeste 0 -- -- 89
2021-02-07 15:00:00 3.4 5 Oeste 16 Sudoeste 0 -- -- 90
2021-02-07 14:00:00 2.9 3 Nordeste 11 Oeste 0 -- -- 96
2021-02-07 13:00:00 3 0 Calma 6 Oeste 0.6 -- -- 96
2021-02-07 12:00:00 1.6 0 Calma 6 Oeste 0.6 -- -- 98
2021-02-07 11:00:00 1.2 0 Calma 7 Sudoeste 0.6 -- -- 100
2021-02-07 10:00:00 0.5 2 Oeste 6 Noroeste 0.4 -- -- 100
2021-02-07 09:00:00 0.2 2 Sudeste 5 Sur 0.4 -- -- 100
2021-02-07 08:00:00 0 0 Calma 5 Sudoeste 0.6 -- -- 100
2021-02-07 07:00:00 0 3 Sudoeste 9 Sudoeste 0.8 -- -- 100
2021-02-07 06:00:00 0.3 3 Sudoeste 12 Oeste 0.4 -- -- 100
2021-02-07 05:00:00 0.3 3 Sur 9 Sur 0.6 -- -- 100
2021-02-07 04:00:00 0.3 5 Oeste 12 Sudoeste 0.4 -- -- 100
2021-02-07 03:00:00 0.2 4 Sur 12 Este 0.8 -- -- 99
2021-02-07 02:00:00 0.6 6 Sudoeste 16 Noroeste 0.4 -- -- 97
2021-02-07 01:00:00 0.5 3 Sudoeste 23 Este 0.4 -- -- 98
2021-02-07 00:00:00 0.6 4 Oeste 18 Este 1.2 -- -- 97
2021-02-06 23:00:00 1.2 6 Sur 24 Este 0.4 -- -- 97
2021-02-06 22:00:00 1.7 5 Oeste 34 Norte 0.2 -- -- 95
2021-02-06 21:00:00 2.3 7 Nordeste 25 Norte 0.2 -- -- 92
2021-02-06 20:00:00 2.4 6 Oeste 17 Nordeste 1.2 -- -- 98
2021-02-06 19:00:00 3.1 5 Nordeste 25 Oeste 2.2 -- -- 95
2021-02-06 18:00:00 3.8 8 Norte 21 Este 3 -- -- 96
2021-02-06 17:00:00 4.4 5 Nordeste 24 Nordeste 3.6 -- -- 96
2021-02-06 16:00:00 5.2 2 Este 15 Oeste 3.8 -- -- 95
2021-02-06 15:00:00 5.8 5 Sudoeste 15 Sudoeste 1.4 -- -- 100
2021-02-06 14:00:00 6.2 5 Sudoeste 19 Sur 0.6 -- -- 100
2021-02-06 13:00:00 6 6 Sudoeste 12 Sudoeste 0.4 -- -- 100
2021-02-06 12:00:00 5.8 3 Sudoeste 8 Sudoeste 1.8 -- -- 100
2021-02-06 11:00:00 5.5 2 Sudoeste 6 Sudoeste 1.4 -- -- 100
2021-02-06 10:00:00 5.8 3 Sudeste 9 Sur 1 -- -- 100
2021-02-06 09:00:00 5.5 0 Calma 4 Sur 0.4 -- -- 100
2021-02-06 08:00:00 5.9 2 Norte 5 Nordeste 0.4 -- -- 100
2021-02-06 07:00:00 5.3 3 Oeste 13 Norte 0 -- -- 100
2021-02-06 06:00:00 6 4 Noroeste 17 Norte 0 -- -- 97
2021-02-06 05:00:00 5.5 6 Nordeste 18 Norte 0 -- -- 100
2021-02-06 04:00:00 5.1 2 Oeste 10 Nordeste 0 -- -- 99
2021-02-06 03:00:00 4.6 0 Calma 4 Este 0 -- -- 100
2021-02-06 02:00:00 4.1 0 Calma 3 Noroeste 0 -- -- 100
2021-02-06 01:00:00 4.8 2 Nordeste 5 Este 0 -- -- 100
2021-02-06 00:00:00 4.3 0 Calma 6 Sudeste 0 -- -- 100
2021-02-05 23:00:00 5 0 Calma 3 Norte 0 -- -- 100
2021-02-05 22:00:00 6.1 2 Nordeste 4 Norte 0 -- -- 100
2021-02-05 21:00:00 6.7 2 Nordeste 3 Nordeste 0 -- -- 97
2021-02-05 20:00:00 7.5 0 Calma 4 Noroeste 0 -- -- 94
2021-02-05 19:00:00 8.8 0 Calma 9 Oeste 0 -- -- 88
2021-02-05 18:00:00 11.4 4 Sudoeste 18 Sur 0 -- -- 72
2021-02-05 17:00:00 12.4 4 Sudoeste 13 Sur 0 -- -- 68
2021-02-05 16:00:00 12.5 4 Este 15 Sudoeste 0 -- -- 78
2021-02-05 15:00:00 13.5 8 Sudoeste 17 Sur 0 -- -- 64
2021-02-05 14:00:00 13.4 4 Sudoeste 9 Oeste 0 -- -- 64
2021-02-05 13:00:00 11.2 2 Sur 7 Este 0 -- -- 81
2021-02-05 12:00:00 11.3 3 Sur 13 Norte 0 -- -- 80
2021-02-05 11:00:00 9.5 0 Calma 4 Sudoeste 0 -- -- 83
2021-02-05 10:00:00 8 0 Calma 2 Nordeste 0 -- -- 87
2021-02-05 09:00:00 6.3 0 Calma 3 Nordeste 0 -- -- 90
2021-02-05 08:00:00 6.7 0 Calma 5 Norte 0 -- -- 89
2021-02-05 07:00:00 8.4 2 Norte 7 Noroeste 0 -- -- 85
2021-02-05 06:00:00 9.9 3 Nordeste 7 Este 0 -- -- 72
2021-02-05 05:00:00 8.5 2 Norte 7 Oeste 0 -- -- 83
2021-02-05 04:00:00 9.2 3 Sudoeste 8 Oeste 0 -- -- 77
2021-02-05 03:00:00 8.4 3 Oeste 12 Oeste 0 -- -- 78
2021-02-05 02:00:00 8.6 5 Oeste 15 Sudoeste 0 -- -- 78
2021-02-05 01:00:00 7.7 3 Sudoeste 22 Sudoeste 0 -- -- 86
2021-02-05 00:00:00 9.5 12 Sudoeste 35 Sudoeste 0 -- -- 77
2021-02-04 23:00:00 9.8 10 Sudoeste 27 Sudoeste 0 -- -- 76
2021-02-04 22:00:00 10.7 13 Sur 27 Sur 0 -- -- 72
2021-02-04 21:00:00 10.2 6 Sudoeste 16 Sur 0 -- -- 77
2021-02-04 20:00:00 9.2 2 Oeste 8 Sudeste 0 -- -- 84
2021-02-04 19:00:00 8.5 3 Nordeste 7 Este 0 -- -- 94
2021-02-04 18:00:00 9.4 0 Calma 7 Este 0 -- -- 93
2021-02-04 17:00:00 10.9 5 Este 16 Sudoeste 0 -- -- 88
2021-02-04 16:00:00 12.6 8 Sur 17 Sur 0 -- -- 75
2021-02-04 15:00:00 12.9 7 Sudoeste 20 Sur 0 -- -- 72
2021-02-04 14:00:00 11.6 12 Sur 30 Sur 0 -- -- 77
2021-02-04 13:00:00 11.4 8 Sur 20 Sudeste 0 -- -- 77
2021-02-04 12:00:00 10.4 5 Sur 27 Sur 0.2 -- -- 84
2021-02-04 11:00:00 9.4 11 Sudoeste 26 Sur 0 -- -- 87
2021-02-04 10:00:00 9.3 14 Sur 31 Sudeste 0 -- -- 87
2021-02-04 09:00:00 9.1 13 Sur 32 Sur 0 -- -- 87
2021-02-04 08:00:00 8.7 13 Sur 27 Sur 0 -- -- 89
2021-02-04 07:00:00 8.9 12 Sur 24 Sur 0 -- -- 88
2021-02-04 06:00:00 8.7 10 Sudoeste 25 Sudoeste 0 -- -- 91
2021-02-04 05:00:00 8.6 11 Sur 29 Sudeste 0 -- -- 93
2021-02-04 04:00:00 8.1 12 Sur 28 Sur 0 -- -- 98
2021-02-04 03:00:00 7.6 5 Sudoeste 21 Sudoeste 0 -- -- 100
2021-02-04 02:00:00 8.7 13 Sur 26 Sur 0 -- -- 91
2021-02-04 01:00:00 8.8 16 Sur 34 Sudoeste 0 -- -- 89
2021-02-04 00:00:00 8.3 9 Sudoeste 27 Sur 0 -- -- 93
2021-02-03 23:00:00 8.4 13 Sur 31 Sudoeste 0 -- -- 93
2021-02-03 22:00:00 7.8 4 Sur 13 Sur 0 -- -- 100
2021-02-03 21:00:00 7.4 2 Sudeste 6 Sudeste 0.4 -- -- 100
2021-02-03 20:00:00 7.5 2 Sudoeste 5 Nordeste 0.2 -- -- 100
2021-02-03 19:00:00 8 0 Calma 7 Este 0 -- -- 97
2021-02-03 18:00:00 8.3 3 Sudeste 9 Este 0 -- -- 96
2021-02-03 17:00:00 8.8 3 Sudeste 7 Sudoeste 0 -- -- 92
2021-02-03 16:00:00 8.8 3 Sudoeste 17 Sudoeste 0 -- -- 93
2021-02-03 15:00:00 8.8 6 Sudoeste 16 Sudoeste 0 -- -- 94
2021-02-03 14:00:00 8.3 5 Sudoeste 16 Sudoeste 0.2 -- -- 96
2021-02-03 13:00:00 7.7 5 Sudoeste 18 Sur 0.4 -- -- 97
2021-02-03 12:00:00 7.3 7 Sudoeste 30 Sur 0 -- -- 96
2021-02-03 11:00:00 7.8 13 Sudoeste 35 Sudoeste 0 -- -- 88
2021-02-03 10:00:00 8.4 14 Sudoeste 31 Sur 0 -- -- 81
2021-02-03 09:00:00 8.1 13 Sudoeste 37 Sudoeste 0 -- -- 82
2021-02-03 08:00:00 7.9 9 Sudoeste 28 Sur 0 -- -- 83
2021-02-03 07:00:00 8.1 10 Sudoeste 38 Sudoeste 0 -- -- 83
2021-02-03 06:00:00 8.2 18 Sudoeste 46 Sur 0 -- -- 83
2021-02-03 05:00:00 8.2 18 Sudoeste 42 Sudoeste 0 -- -- 82
2021-02-03 04:00:00 8 21 Sur 47 Sur 0 -- -- 85
2021-02-03 03:00:00 8.2 18 Sur 44 Sudoeste 0.2 -- -- 87
2021-02-03 02:00:00 8.4 18 Sudoeste 40 Sudoeste 0 -- -- 87
2021-02-03 01:00:00 7.6 12 Sur 23 Sudoeste 0 -- -- 90
2021-02-03 00:00:00 8.3 12 Sur 28 Sudoeste 0 -- -- 88
2021-02-02 23:00:00 8.8 12 Sudoeste 28 Sudoeste 0 -- -- 85
2021-02-02 22:00:00 9.1 11 Sudoeste 29 Sur 0 -- -- 86
2021-02-02 21:00:00 9.3 7 Sur 22 Sudeste 0 -- -- 84
2021-02-02 20:00:00 9.9 6 Sur 20 Sudeste 0 -- -- 84
2021-02-02 19:00:00 10.2 7 Sur 19 Sudeste 0 -- -- 84
2021-02-02 18:00:00 10.6 8 Sur 20 Sur 0 -- -- 84
2021-02-02 17:00:00 11.2 11 Sur 23 Sudoeste 0 -- -- 80
2021-02-02 16:00:00 11.9 14 Sur 27 Sudeste 0 -- -- 77
2021-02-02 15:00:00 11.5 13 Sur 31 Sur 0 -- -- 80
2021-02-02 14:00:00 11.5 14 Sur 27 Sur 0 -- -- 83
2021-02-02 13:00:00 10.5 13 Sur 25 Sur 0 -- -- 81
2021-02-02 12:00:00 11 14 Sur 23 Sudeste 0 -- -- 84
2021-02-02 11:00:00 9.1 8 Sur 16 Sudeste 0 -- -- 91
2021-02-02 10:00:00 8.4 3 Sur 9 Sudeste 0 -- -- 94
2021-02-02 09:00:00 6.8 3 Sur 12 Sudeste 0 -- -- 100
2021-02-02 08:00:00 6.9 0 Calma 12 Sur 0 -- -- 100
2021-02-02 07:00:00 6.6 2 Oeste 5 Noroeste 0 -- -- 100
2021-02-02 06:00:00 6.5 0 Calma 5 Este 0 -- -- 100
2021-02-02 05:00:00 6.7 0 Calma 5 Noroeste 0 -- -- 100
2021-02-02 04:00:00 6 0 Calma 3 Nordeste 0 -- -- 100
2021-02-02 03:00:00 7 0 Calma 5 Nordeste 0 -- -- 100
2021-02-02 02:00:00 7.2 0 Calma 4 Nordeste 0 -- -- 100
2021-02-02 01:00:00 7.1 0 Calma 5 Nordeste 0 -- -- 100
2021-02-02 00:00:00 7.1 3 Norte 6 Nordeste 0.4 -- -- 100
2021-02-01 23:00:00 6.9 2 Nordeste 4 Este 1.2 -- -- 100
2021-02-01 22:00:00 7 0 Calma 12 Nordeste 0.8 -- -- 100
2021-02-01 21:00:00 7.7 3 Nordeste 16 Norte 0 -- -- 95
2021-02-01 20:00:00 7.9 4 Norte 23 Noroeste 0 -- -- 94
2021-02-01 19:00:00 7.8 6 Norte 19 Nordeste 0 -- -- 97
2021-02-01 18:00:00 7.5 6 Norte 28 Noroeste 1 -- -- 100
2021-02-01 17:00:00 7.9 6 Nordeste 32 Nordeste 3.2 -- -- 97
2021-02-01 16:00:00 7.8 6 Este 31 Nordeste 4 -- -- 97
2021-02-01 15:00:00 7.6 7 Oeste 24 Oeste 3.6 -- -- 98
2021-02-01 14:00:00 7.6 6 Nordeste 31 Norte 4.6 -- -- 96
2021-02-01 13:00:00 7.2 5 Sudoeste 26 Oeste 2.2 -- -- 97
2021-02-01 12:00:00 6.9 4 Sur 37 Noroeste 1.4 -- -- 94
2021-02-01 11:00:00 6.5 6 Noroeste 34 Este 0.6 -- -- 93
2021-02-01 10:00:00 6.7 8 Norte 37 Nordeste 0.2 -- -- 87
2021-02-01 09:00:00 6.7 6 Sudeste 32 Nordeste 0 -- -- 86
2021-02-01 08:00:00 6 5 Sudoeste 32 Sudoeste 1.4 -- -- 93
2021-02-01 07:00:00 6.2 8 Norte 41 Oeste 1.6 -- -- 91
2021-02-01 06:00:00 6.2 10 Oeste 39 Oeste 2.4 -- -- 93
2021-02-01 05:00:00 6.1 7 Oeste 57 Sudoeste 4.4 -- -- 93
2021-02-01 04:00:00 6 5 Noroeste 32 Oeste 2.2 -- -- 95
2021-02-01 03:00:00 6.1 7 Sudoeste 33 Oeste 1.8 -- -- 94
2021-02-01 02:00:00 6.2 6 Este 31 Nordeste 3.2 -- -- 94
2021-02-01 01:00:00 6.5 4 Oeste 49 Oeste 3.8 -- -- 96
2021-02-01 00:00:00 7.2 5 Oeste 39 Noroeste 1.8 -- -- 96
2021-01-31 23:00:00 8.1 9 Oeste 28 Oeste 0.6 -- -- 91
2021-01-31 22:00:00 6.2 3 Sur 9 Sur 0.2 -- -- 100
2021-01-31 21:00:00 6.3 2 Norte 4 Norte 0.4 -- -- 100
2021-01-31 20:00:00 6.1 0 Calma 8 Sudeste 0 -- -- 100
2021-01-31 19:00:00 6.7 0 Calma 5 Sudoeste 0 -- -- 100
2021-01-31 18:00:00 7.1 0 Calma 11 Sudoeste 0 -- -- 99
2021-01-31 17:00:00 8.5 4 Sudoeste 19 Sudoeste 0 -- -- 95
2021-01-31 16:00:00 7.1 6 Sudoeste 25 Oeste 0.2 -- -- 100
2021-01-31 15:00:00 5.4 0 Calma 9 Sudoeste 1 -- -- 100
2021-01-31 14:00:00 5.1 0 Calma 10 Sudoeste 2.6 -- -- 100
2021-01-31 13:00:00 5 4 Sudoeste 10 Oeste 2.6 -- -- 100
2021-01-31 12:00:00 4.7 2 Norte 9 Sur 0.4 -- -- 100
2021-01-31 11:00:00 5 0 Calma 17 Nordeste 1.2 -- -- 100
2021-01-31 10:00:00 4.7 5 Noroeste 23 Sudoeste 1.4 -- -- 99
2021-01-31 09:00:00 4.7 4 Oeste 28 Oeste 1.6 -- -- 97
2021-01-31 08:00:00 4.7 8 Norte 33 Norte 1 -- -- 98
2021-01-31 07:00:00 4.7 6 Norte 28 Oeste 1.6 -- -- 97
2021-01-31 06:00:00 4.5 4 Norte 34 Este 3 -- -- 98
2021-01-31 05:00:00 4.4 6 Sur 32 Oeste 2.6 -- -- 98
2021-01-31 04:00:00 4.4 8 Sudoeste 35 Oeste 3.2 -- -- 97
2021-01-31 03:00:00 3.4 5 Sudoeste 18 Sudoeste 3.6 -- -- 100
2021-01-31 02:00:00 3.5 4 Sudoeste 20 Oeste 2.4 -- -- 98
2021-01-31 01:00:00 3.6 8 Sudoeste 26 Sudoeste 1.2 -- -- 96
2021-01-31 00:00:00 3.3 5 Noroeste 34 Oeste 1 -- -- 97